MSC Mirjam — D5MF8 — position and weather

sailwx.info

Track history (hours):
 
Tides and Currents Weather Stations Pressure Air Temp Water Temp Dewpoint Dewpoint Depression Visibility Wind Speed Wind Dir Waves Ship Positions

MSC Mirjam

Last reported at 2017-Oct-20 10:37 UTC. Time now 2017-Oct-22 04:57 UTC.
Position N 22°44' E 119°53'.

Length 400 m; draft 12.6 m.

Type: Ship (hazmat cat A). MMSI: 636017684.

Date/timePositionNaut miles runAvg speedWind from/ knotsBaromVisibWave heightAir tempDewpointWater temp
2017-Oct-20 10:37N 22°44' E 119°53'917.4
2017-Oct-20 10:08N 22°35' E 119°53'217.2
2017-Oct-20 10:00N 22°33' E 119°53'816.8
2017-Oct-20 09:30N 22°25' E 119°53'  
2017-Oct-16 21:53N 01°17' E 104°18'2 4.7
2017-Oct-16 21:26N 01°17' E 104°16'3 4.5
2017-Oct-16 20:49N 01°17' E 104°13'1 4.3
2017-Oct-16 20:30N 01°16' E 104°12'2 4.1
2017-Oct-16 19:58N 01°16' E 104°09'2 4.0
2017-Oct-16 19:23N 01°16' E 104°07'2 3.8
2017-Oct-16 18:59N 01°16' E 104°06'6 0.8
2017-Oct-16 10:35N 01°16' E 104°12'317.8
2017-Oct-16 10:25N 01°16' E 104°09'717.6
2017-Oct-16 10:00N 01°15' E 104°02'917.7
2017-Oct-16 09:31N 01°12' E 103°53'510.7
2017-Oct-16 09:00N 01°13' E 103°48'4 8.4
2017-Oct-16 08:31N 01°16' E 103°46'1 1.2
2017-Oct-16 08:01N 01°17' E 103°45'0 0.1
2017-Oct-16 07:31N 01°17' E 103°45'0 0.0
2017-Oct-16 06:58N 01°17' E 103°45'0 0.0
2017-Oct-16 06:28N 01°17' E 103°45'0 0.0
2017-Oct-16 05:58N 01°17' E 103°45'0 0.0
2017-Oct-16 05:28N 01°17' E 103°45'0 0.0
2017-Oct-16 04:58N 01°17' E 103°45'0 0.0
2017-Oct-16 04:28N 01°17' E 103°45'0 0.0
2017-Oct-16 03:58N 01°17' E 103°45'0 0.0
2017-Oct-16 03:28N 01°17' E 103°45'0 0.0
2017-Oct-16 02:58N 01°17' E 103°45'0 0.0
2017-Oct-16 02:25N 01°17' E 103°45'0 0.0
2017-Oct-16 01:58N 01°17' E 103°45'0 0.0
2017-Oct-16 01:28N 01°17' E 103°45'0 0.0
2017-Oct-16 00:55N 01°17' E 103°45'0 0.0
2017-Oct-16 00:28N 01°17' E 103°45'0 0.0
2017-Oct-15 23:58N 01°17' E 103°45'0 0.0
2017-Oct-15 23:28N 01°17' E 103°45'0 0.0
2017-Oct-15 22:58N 01°17' E 103°45'0 0.0
2017-Oct-15 22:28N 01°17' E 103°45'0 0.0
2017-Oct-15 21:58N 01°17' E 103°45'0 0.0
2017-Oct-15 21:25N 01°17' E 103°45'0 0.0
2017-Oct-15 20:58N 01°17' E 103°45'0 0.0
2017-Oct-15 20:28N 01°17' E 103°45'0 0.0
2017-Oct-15 19:58N 01°17' E 103°45'0 0.0
2017-Oct-15 19:25N 01°17' E 103°45'0 0.0
2017-Oct-15 18:58N 01°17' E 103°45'0 0.0
2017-Oct-15 18:28N 01°17' E 103°45'0 0.0
2017-Oct-15 17:58N 01°17' E 103°45'0 0.0
2017-Oct-15 17:28N 01°17' E 103°45'0 0.0
2017-Oct-15 16:58N 01°17' E 103°45'0 0.0
2017-Oct-15 16:28N 01°17' E 103°45'0 0.0
2017-Oct-15 15:55N 01°17' E 103°45'0 0.0
2017-Oct-15 15:28N 01°17' E 103°45'0 0.0
2017-Oct-15 14:58N 01°17' E 103°45'0 0.0
2017-Oct-15 13:58N 01°17' E 103°45'0 0.0
2017-Oct-15 13:28N 01°17' E 103°45'0 0.0
2017-Oct-15 12:58N 01°17' E 103°45'0 0.0
2017-Oct-15 12:25N 01°17' E 103°45'0 0.0
2017-Oct-15 11:58N 01°17' E 103°45'0 0.0
2017-Oct-15 11:28N 01°17' E 103°45'0 0.0
2017-Oct-15 10:58N 01°17' E 103°45'0 0.0
2017-Oct-15 10:22N 01°17' E 103°45'0 0.0
2017-Oct-15 09:55N 01°17' E 103°45'0 0.0
2017-Oct-15 09:28N 01°17' E 103°45'0 0.0
2017-Oct-15 08:58N 01°17' E 103°45'0 0.0
2017-Oct-15 08:28N 01°17' E 103°45'0 0.0
2017-Oct-15 07:58N 01°17' E 103°45'0 0.0
2017-Oct-15 07:25N 01°17' E 103°45'0 0.0
2017-Oct-15 06:58N 01°17' E 103°45'0 0.0
2017-Oct-15 06:28N 01°17' E 103°45'0 0.1
2017-Oct-15 06:01N 01°17' E 103°45'1 1.7
2017-Oct-15 05:31N 01°16' E 103°46'2 4.2
2017-Oct-15 05:01N 01°15' E 103°44'611.5
2017-Oct-15 04:31N 01°12' E 103°39'4 8.3
2017-Oct-15 04:00N 01°12' E 103°35'3 6.9
2017-Oct-15 03:31N 01°11' E 103°32'815.6
2017-Oct-15 03:00N 01°13' E 103°24'918.1
2017-Oct-15 02:30N 01°19' E 103°17'918.2
2017-Oct-15 02:00N 01°24' E 103°09'  
Track history (hours):
 
Tides and Currents Weather Stations Pressure Air Temp Water Temp Dewpoint Dewpoint Depression Visibility Wind Speed Wind Dir Waves Ship Positions

MSC Mirjam

Last reported at 2017-Oct-20 10:37 UTC. Time now 2017-Oct-22 04:57 UTC.
Position N 22°44' E 119°53'.

Length 400 m; draft 12.6 m.

Type: Ship (hazmat cat A). MMSI: 636017684.

Date/timePositionNaut miles runAvg speedWind from/ knotsBaromVisibWave heightAir tempDewpointWater temp
2017-Oct-20 10:37N 22°44' E 119°53'917.4
2017-Oct-20 10:08N 22°35' E 119°53'217.2
2017-Oct-20 10:00N 22°33' E 119°53'816.8
2017-Oct-20 09:30N 22°25' E 119°53'  
2017-Oct-16 21:53N 01°17' E 104°18'2 4.7
2017-Oct-16 21:26N 01°17' E 104°16'3 4.5
2017-Oct-16 20:49N 01°17' E 104°13'1 4.3
2017-Oct-16 20:30N 01°16' E 104°12'2 4.1
2017-Oct-16 19:58N 01°16' E 104°09'2 4.0
2017-Oct-16 19:23N 01°16' E 104°07'2 3.8
2017-Oct-16 18:59N 01°16' E 104°06'6 0.8
2017-Oct-16 10:35N 01°16' E 104°12'317.8
2017-Oct-16 10:25N 01°16' E 104°09'717.6
2017-Oct-16 10:00N 01°15' E 104°02'917.7
2017-Oct-16 09:31N 01°12' E 103°53'510.7
2017-Oct-16 09:00N 01°13' E 103°48'4 8.4
2017-Oct-16 08:31N 01°16' E 103°46'1 1.2
2017-Oct-16 08:01N 01°17' E 103°45'0 0.1
2017-Oct-16 07:31N 01°17' E 103°45'0 0.0
2017-Oct-16 06:58N 01°17' E 103°45'0 0.0
2017-Oct-16 06:28N 01°17' E 103°45'0 0.0
2017-Oct-16 05:58N 01°17' E 103°45'0 0.0
2017-Oct-16 05:28N 01°17' E 103°45'0 0.0
2017-Oct-16 04:58N 01°17' E 103°45'0 0.0
2017-Oct-16 04:28N 01°17' E 103°45'0 0.0
2017-Oct-16 03:58N 01°17' E 103°45'0 0.0
2017-Oct-16 03:28N 01°17' E 103°45'0 0.0
2017-Oct-16 02:58N 01°17' E 103°45'0 0.0
2017-Oct-16 02:25N 01°17' E 103°45'0 0.0
2017-Oct-16 01:58N 01°17' E 103°45'0 0.0
2017-Oct-16 01:28N 01°17' E 103°45'0 0.0
2017-Oct-16 00:55N 01°17' E 103°45'0 0.0
2017-Oct-16 00:28N 01°17' E 103°45'0 0.0
2017-Oct-15 23:58N 01°17' E 103°45'0 0.0
2017-Oct-15 23:28N 01°17' E 103°45'0 0.0
2017-Oct-15 22:58N 01°17' E 103°45'0 0.0
2017-Oct-15 22:28N 01°17' E 103°45'0 0.0
2017-Oct-15 21:58N 01°17' E 103°45'0 0.0
2017-Oct-15 21:25N 01°17' E 103°45'0 0.0
2017-Oct-15 20:58N 01°17' E 103°45'0 0.0
2017-Oct-15 20:28N 01°17' E 103°45'0 0.0
2017-Oct-15 19:58N 01°17' E 103°45'0 0.0
2017-Oct-15 19:25N 01°17' E 103°45'0 0.0
2017-Oct-15 18:58N 01°17' E 103°45'0 0.0
2017-Oct-15 18:28N 01°17' E 103°45'0 0.0
2017-Oct-15 17:58N 01°17' E 103°45'0 0.0
2017-Oct-15 17:28N 01°17' E 103°45'0 0.0
2017-Oct-15 16:58N 01°17' E 103°45'0 0.0
2017-Oct-15 16:28N 01°17' E 103°45'0 0.0
2017-Oct-15 15:55N 01°17' E 103°45'0 0.0
2017-Oct-15 15:28N 01°17' E 103°45'0 0.0
2017-Oct-15 14:58N 01°17' E 103°45'0 0.0
2017-Oct-15 13:58N 01°17' E 103°45'0 0.0
2017-Oct-15 13:28N 01°17' E 103°45'0 0.0
2017-Oct-15 12:58N 01°17' E 103°45'0 0.0
2017-Oct-15 12:25N 01°17' E 103°45'0 0.0
2017-Oct-15 11:58N 01°17' E 103°45'0 0.0
2017-Oct-15 11:28N 01°17' E 103°45'0 0.0
2017-Oct-15 10:58N 01°17' E 103°45'0 0.0
2017-Oct-15 10:22N 01°17' E 103°45'0 0.0
2017-Oct-15 09:55N 01°17' E 103°45'0 0.0
2017-Oct-15 09:28N 01°17' E 103°45'0 0.0
2017-Oct-15 08:58N 01°17' E 103°45'0 0.0
2017-Oct-15 08:28N 01°17' E 103°45'0 0.0
2017-Oct-15 07:58N 01°17' E 103°45'0 0.0
2017-Oct-15 07:25N 01°17' E 103°45'0 0.0
2017-Oct-15 06:58N 01°17' E 103°45'0 0.0
2017-Oct-15 06:28N 01°17' E 103°45'0 0.1
2017-Oct-15 06:01N 01°17' E 103°45'1 1.7
2017-Oct-15 05:31N 01°16' E 103°46'2 4.2
2017-Oct-15 05:01N 01°15' E 103°44'611.5
2017-Oct-15 04:31N 01°12' E 103°39'4 8.3
2017-Oct-15 04:00N 01°12' E 103°35'3 6.9
2017-Oct-15 03:31N 01°11' E 103°32'815.6
2017-Oct-15 03:00N 01°13' E 103°24'918.1
2017-Oct-15 02:30N 01°19' E 103°17'918.2
2017-Oct-15 02:00N 01°24' E 103°09'  

Dump ship's entire track history